Flight Track Log - Related Links

Times and Time Zones

All times are in EDT time to prevent confusion due to time zone crossing. See the JIA2481 flight status page for this flight to view local times or setup timezone preferences in your user account.

Time Position Orientation Groundspeed Altitude Reporting Facility
EDT Latitude Longitude Course Direction KTS MPH feet Rate Location/Type
Fri 11:07:15 AM 35.2185 -80.9789 153° Southeast  Level FlightAware Approximate
Fri 11:08:15 AM 35.2377 -81.0983 121° Southeast  Level FlightAware Approximate
Fri 11:09:02 AM 35.1597 -80.9419 251° West 189 217 2,800  Level Atlanta Center
Fri 11:10:27 AM 35.1308 -81.0419 273° West 267 307 5,700 2,276 Climbing Atlanta Center
Fri 11:11:27 AM 35.1353 -81.1333 273° West 267 307 8,300 2,300 Climbing Atlanta Center
Fri 11:12:27 AM 35.1394 -81.2272 272° West 280 322 10,300 1,800 Climbing Atlanta Center
Fri 11:13:27 AM 35.1419 -81.3336 273° West 303 349 11,900 1,600 Climbing Atlanta Center
Fri 11:14:27 AM 35.1464 -81.4531 269° West 318 366 13,500 1,550 Climbing Atlanta Center
Fri 11:15:27 AM 35.1447 -81.5697 264° West 332 382 15,000 1,500 Climbing Atlanta Center
Fri 11:16:27 AM 35.1344 -81.6844 265° West 338 389 16,500 1,450 Climbing Atlanta Center
Fri 11:17:27 AM 35.1261 -81.8042 266° West 354 407 17,900 1,500 Climbing Atlanta Center
Fri 11:18:27 AM 35.1200 -81.9236 264° West 354 407 19,500 1,550 Climbing Atlanta Center
Fri 11:19:27 AM 35.1094 -82.0406 263° West 348 400 21,000 1,500 Climbing Atlanta Center
Fri 11:20:27 AM 35.0986 -82.1550 264° West 353 406 22,500 1,300 Climbing Atlanta Center
Fri 11:21:27 AM 35.0900 -82.2594 284° West 353 406 23,600 1,050 Climbing Atlanta Center
Fri 11:22:27 AM 35.1144 -82.3756 286° West 347 399 24,600 1,050 Climbing Atlanta Center
Fri 11:23:27 AM 35.1408 -82.4869 289° West 347 399 25,700 1,000 Climbing Atlanta Center
Fri 11:24:27 AM 35.1714 -82.5981 289° West 352 405 26,600 650 Climbing Atlanta Center
Fri 11:25:27 AM 35.2083 -82.7297 286° West 362 417 27,000 600 Climbing Atlanta Center
Fri 11:26:27 AM 35.2369 -82.8539 287° West 362 417 27,800 750 Climbing Atlanta Center
Fri 11:27:27 AM 35.2650 -82.9678 287° West 375 432 28,500 750 Climbing Atlanta Center
Fri 11:28:27 AM 35.2972 -83.0947 288° West 382 440 29,300 750 Climbing Atlanta Center
Fri 11:29:27 AM 35.3294 -83.2139 286° West 382 440 30,000 650 Climbing Atlanta Center
Fri 11:30:27 AM 35.3594 -83.3411 288° West 377 434 30,600 550 Climbing Atlanta Center
Fri 11:31:27 AM 35.3914 -83.4631 286° West 377 434 31,100 500 Climbing Atlanta Center
Fri 11:32:27 AM 35.4211 -83.5928 288° West 382 440 31,600 400 Climbing Atlanta Center
Fri 11:33:27 AM 35.4550 -83.7200 287° West 382 440 31,900 200 Climbing Atlanta Center
Fri 11:34:27 AM 35.4867 -83.8500 286° West 387 445 32,000 50 Climbing Atlanta Center
Fri 11:35:28 AM 35.5181 -83.9853 287° West 399 459 32,000  Level Atlanta Center
Fri 11:36:27 AM 35.5492 -84.1128 286° West 399 459 32,000  Level Atlanta Center
Fri 11:37:27 AM 35.5803 -84.2431 286° West 394 453 32,000  Level Atlanta Center
Fri 11:38:27 AM 35.6114 -84.3733 286° West 394 453 32,000  Level Atlanta Center
Fri 11:39:27 AM 35.6422 -84.5064 286° West 394 453 32,000  Level Atlanta Center
Fri 11:41:43 AM 35.7133 -84.8114 284° West 410 472 32,000  Level Memphis Center
Fri 11:42:43 AM 35.7347 -84.9175 287° West 410 472 32,000  Level Memphis Center
Fri 11:43:43 AM 35.7703 -85.0636 287° West 410 472 32,000  Level Memphis Center
Fri 11:44:43 AM 35.8031 -85.1944 286° West 410 472 32,000  Level Memphis Center
Fri 11:45:43 AM 35.8333 -85.3256 286° West 410 472 32,000  Level Memphis Center
Fri 11:46:43 AM 35.8636 -85.4569 285° West 410 472 32,000  Level Memphis Center
Fri 11:47:43 AM 35.8917 -85.5886 287° West 410 472 32,000  Level Memphis Center
Fri 11:48:43 AM 35.9239 -85.7225 285° West 410 472 32,000  Level Memphis Center
Fri 11:49:43 AM 35.9564 -85.8694 286° West 410 472 32,000  Level Memphis Center
Fri 11:50:43 AM 35.9861 -86.0011 286° West 410 472 32,000  Level Memphis Center
Fri 11:51:43 AM 36.0158 -86.1331 284° West 405 466 32,000  Level Memphis Center
Fri 11:52:43 AM 36.0431 -86.2653 286° West 405 466 32,000  Level Memphis Center
Fri 11:53:43 AM 36.0744 -86.3997 284° West 405 466 32,000  Level Memphis Center
Fri 11:54:43 AM 36.1017 -86.5319 286° West 405 466 32,000  Level Memphis Center
Fri 11:55:43 AM 36.1281 -86.6489 275° West 405 466 32,000  Level Memphis Center
Fri 11:56:43 AM 36.1383 -86.7847 273° West 405 466 32,000  Level Memphis Center
Fri 11:57:43 AM 36.1442 -86.9206 274° West 400 460 32,000  Level Memphis Center
Fri 11:58:43 AM 36.1525 -87.0694 274° West 400 460 32,000  Level Memphis Center
Fri 11:59:43 AM 36.1600 -87.2003 273° West 400 460 32,000  Level Memphis Center
Fri 12:00:43 PM 36.1656 -87.3361 274° West 400 460 32,000  Level Memphis Center
Fri 12:01:43 PM 36.1728 -87.4644 273° West 400 460 32,000  Level Memphis Center
Fri 12:02:43 PM 36.1778 -87.5956 274° West 388 447 32,000  Level Memphis Center
Fri 12:03:43 PM 36.1847 -87.7264 273° West 381 438 32,000  Level Memphis Center
Fri 12:04:43 PM 36.1897 -87.8600 274° West 386 444 32,000  Level Memphis Center
Fri 12:05:43 PM 36.1961 -87.9756 271° West 379 436 32,000  Level Memphis Center
Fri 12:06:43 PM 36.1986 -88.1039 276° West 384 442 32,000  Level Memphis Center
Fri 12:07:43 PM 36.2094 -88.2425 272° West 377 434 32,000  Level Memphis Center
Fri 12:08:43 PM 36.2136 -88.3736 271° West 377 434 32,000  Level Memphis Center
Fri 12:09:43 PM 36.2156 -88.5072 273° West 382 440 32,000  Level Memphis Center
Fri 12:10:43 PM 36.2217 -88.6383 272° West 382 440 32,000  Level Memphis Center
Fri 12:11:43 PM 36.2256 -88.7694 272° West 382 440 32,000  Level Memphis Center
Fri 12:12:43 PM 36.2292 -88.9033 272° West 387 445 32,000  Level Memphis Center
Fri 12:13:43 PM 36.2328 -89.0369 272° West 387 445 32,000  Level Memphis Center
Fri 12:14:43 PM 36.2364 -89.1733 270° West 387 445 32,000  Level Memphis Center
Fri 12:15:43 PM 36.2356 -89.3097 273° West 387 445 32,000  Level Memphis Center
Fri 12:16:43 PM 36.2408 -89.4461 272° West 398 458 32,000  Level Memphis Center
Fri 12:17:43 PM 36.2436 -89.5567 272° West 404 465 32,000  Level Memphis Center
Fri 12:18:43 PM 36.2486 -89.7033 272° West 404 465 32,000  Level Memphis Center
Fri 12:19:43 PM 36.2533 -89.8397 273° West 404 465 32,000  Level Memphis Center
Fri 12:20:43 PM 36.2581 -89.9683 271° West 398 458 32,000  Level Memphis Center
Fri 12:21:43 PM 36.2606 -90.1047 271° West 398 458 32,000  Level Memphis Center
Fri 12:22:43 PM 36.2628 -90.2361 271° West 398 458 32,000  Level Memphis Center
Fri 12:23:43 PM 36.2650 -90.3725 272° West 398 458 32,000  Level Memphis Center
Fri 12:24:43 PM 36.2689 -90.5036 271° West 398 458 32,000  Level Memphis Center
Fri 12:25:43 PM 36.2708 -90.6350 271° West 393 452 32,000  Level Memphis Center
Fri 12:26:43 PM 36.2725 -90.7689 270° West 393 452 32,000  Level Memphis Center
Fri 12:27:43 PM 36.2722 -90.9053 272° West 393 452 32,000  Level Memphis Center
Fri 12:28:43 PM 36.2756 -91.0392 272° West 393 452 32,000  Level Memphis Center
Fri 12:29:43 PM 36.2789 -91.1706 271° West 393 452 32,000 -400 Level Memphis Center
Fri 12:30:43 PM 36.2800 -91.3069 269° West 393 452 31,200 -850 Descending Memphis Center
Fri 12:31:43 PM 36.2789 -91.4458 273° West 398 458 30,300 -1,000 Descending Memphis Center
Fri 12:32:43 PM 36.2839 -91.5850 270° West 404 465 29,200 -1,050 Descending Memphis Center
Fri 12:33:43 PM 36.2847 -91.7242 271° West 404 465 28,200 -1,000 Descending Memphis Center
Fri 12:34:43 PM 36.2872 -91.8556 271° West 399 459 27,200 -1,000 Descending Memphis Center
Fri 12:35:43 PM 36.2897 -91.9867 270° West 394 453 26,200 -1,000 Descending Memphis Center
Fri 12:36:43 PM 36.2900 -92.1233 270° West 394 453 25,200 -1,000 Descending Memphis Center
Fri 12:37:43 PM 36.2903 -92.2519 269° West 388 447 24,200 -1,000 Descending Memphis Center
Fri 12:38:43 PM 36.2883 -92.3808 271° West 383 441 23,200 -1,000 Descending Memphis Center
Fri 12:39:43 PM 36.2903 -92.5069 271° West 383 441 22,200 -1,000 Descending Memphis Center
Fri 12:40:43 PM 36.2922 -92.6331 270° West 383 441 21,200 -1,000 Descending Memphis Center
Fri 12:41:43 PM 36.2919 -92.7594 269° West 378 435 20,200 -1,000 Descending Memphis Center
Fri 12:42:43 PM 36.2894 -92.8803 270° West 367 422 19,200 -1,000 Descending Memphis Center
Fri 12:43:43 PM 36.2892 -93.0014 271° West 361 415 18,200 -950 Descending Memphis Center
Fri 12:44:43 PM 36.2906 -93.1250 270° West 361 415 17,300 -950 Descending Memphis Center
Fri 12:45:43 PM 36.2900 -93.2433 270° West 356 410 16,300 -650 Descending Memphis Center
Fri 12:46:43 PM 36.2892 -93.3617 270° West 350 403 16,000 -850 Descending Memphis Center
Fri 12:47:43 PM 36.2886 -93.4775 267° West 344 396 14,600 -1,650 Descending Memphis Center
Fri 12:48:43 PM 36.2836 -93.5933 254° West 344 396 12,700 -1,850 Descending Memphis Center
Fri 12:49:43 PM 36.2578 -93.7028 254° West 344 396 10,900 -1,600 Descending Memphis Center
Fri 12:50:43 PM 36.2339 -93.8047 253° West 328 377 9,500 -1,600 Descending Memphis Center
Fri 12:51:43 PM 36.2128 -93.8889 251° West 296 341 7,700 -1,800 Descending Memphis Center
Fri 12:52:43 PM 36.1872 -93.9803 254° West 281 323 5,900 -1,300 Descending Memphis Center
Fri 12:53:43 PM 36.1683 -94.0617 249° West 271 312 5,100 -900 Descending Memphis Center
Fri 12:54:43 PM 36.1406 -94.1506 257° West 271 312 4,100 -600 Descending Memphis Center
Fri 12:55:43 PM 36.1256 -94.2319 257° West 249 287 3,900 -200 Descending Memphis Center

Login

Don't have an account? Register now (free) for customized features, flight alerts, and more!